Flight Track Log - Related Links

Times and Time Zones

All times are in EDT time to prevent confusion due to time zone crossing. See the SWA1910 flight status page for this flight to view local times or setup timezone preferences in your user account.


Time Position Orientation Groundspeed Altitude Reporting Facility
EDT Latitude Longitude Course Direction KTS MPH feet Rate Location/Type
Thu 07:27:18 PM 39.1333 -76.6333 142° Southeast 193 222 3,400  Level Potomac TRACON
Thu 07:28:19 PM 39.0833 -76.5833 142° Southeast 223 257 7,500 3,372 Climbing Potomac TRACON
Thu 07:29:19 PM 39.0167 -76.5500 159° South 264 304 10,200 3,200 Climbing Potomac TRACON
Thu 07:30:19 PM 38.9333 -76.5333 171° South 317 365 13,900 2,246 Climbing Potomac TRACON
Thu 07:32:34 PM 38.7506 -76.6297 202° Southwest 321 369 17,500 1,577 Climbing Washington Center
Thu 07:33:33 PM 38.6583 -76.6764 202° Southwest 333 383 19,000 750 Climbing Washington Center
Thu 07:34:34 PM 38.5578 -76.7200 199° South 363 418 19,000 1,190 Level Washington Center
Thu 07:35:34 PM 38.4517 -76.7106 176° South 378 435 21,400 2,000 Climbing Washington Center
Thu 07:36:34 PM 38.3369 -76.6956 174° South 397 457 23,000 807 Climbing Washington Center
Thu 07:37:33 PM 38.2350 -76.6808 174° South 408 470 23,000 50 Level Washington Center
Thu 07:38:34 PM 38.1183 -76.6658 174° South 418 481 23,100 942 Climbing Washington Center
Thu 07:39:34 PM 37.9997 -76.6536 175° South 428 493 24,900 1,900 Climbing Washington Center
Thu 07:40:34 PM 37.8789 -76.6361 173° South 434 499 26,900 2,400 Climbing Washington Center
Thu 07:41:34 PM 37.7558 -76.6189 174° South 444 511 29,700 2,380 Climbing Washington Center
Thu 07:43:33 PM 37.5244 -76.6025 177° South 431 496 34,000 1,433 Climbing Washington Center
Thu 07:44:34 PM 37.4261 -76.6406 197° South 393 452 34,000 545 Level Washington Center
Thu 07:45:34 PM 37.3258 -76.6758 196° South 388 447 35,100 1,000 Climbing Washington Center
Thu 07:46:34 PM 37.2314 -76.7108 196° South 376 433 36,000 900 Climbing Washington Center
Thu 07:47:34 PM 37.1353 -76.7461 196° South 364 419 36,900 1,500 Climbing Washington Center
Thu 07:48:34 PM 37.0431 -76.7811 197° South 358 412 39,000 1,550 Climbing Washington Center
Thu 07:49:34 PM 36.9553 -76.8133 196° South 347 399 40,000 500 Climbing Washington Center
Thu 07:50:34 PM 36.8650 -76.8458 196° South 342 394 40,000  Level Washington Center
Thu 07:51:34 PM 36.7772 -76.8781 196° South 342 394 40,000  Level Washington Center
Thu 07:52:34 PM 36.6872 -76.9103 196° South 342 394 40,000  Level Washington Center
Thu 07:53:34 PM 36.5992 -76.9425 196° South 342 394 40,000  Level Washington Center
Thu 07:54:34 PM 36.5069 -76.9769 197° South 342 394 40,000 -50 Level Washington Center
Thu 07:55:34 PM 36.4189 -77.0089 196° South 342 394 39,900 -50 Descending Washington Center
Thu 07:56:34 PM 36.3331 -77.0383 195° South 342 394 39,900  Level Washington Center
Thu 07:57:34 PM 36.2428 -77.0703 196° South 342 394 39,900  Level Washington Center
Thu 07:58:34 PM 36.1569 -77.1019 197° South 337 388 39,900 50 Level Washington Center
Thu 07:59:34 PM 36.0606 -77.1361 196° South 337 388 40,000 50 Climbing Washington Center
Thu 08:00:34 PM 35.9725 -77.1653 195° South 337 388 40,000  Level Washington Center
Thu 08:01:34 PM 35.8803 -77.1969 196° South 337 388 40,000  Level Washington Center
Thu 08:02:34 PM 35.7922 -77.2283 196° South 337 388 40,000  Level Washington Center
Thu 08:03:34 PM 35.7022 -77.2597 196° South 348 400 40,000  Level Washington Center
Thu 08:04:33 PM 35.6100 -77.2911 195° South 343 395 40,000  Level Washington Center
Thu 08:05:34 PM 35.5197 -77.3222 196° South 343 395 40,000  Level Washington Center
Thu 08:06:34 PM 35.4275 -77.3558 197° South 343 395 40,000  Level Washington Center
Thu 08:07:34 PM 35.3372 -77.3872 196° South 343 395 40,000  Level Washington Center
Thu 08:08:34 PM 35.2469 -77.4181 196° South 343 395 40,000  Level Washington Center
Thu 08:09:34 PM 35.1528 -77.4492 195° South 343 395 40,000  Level Washington Center
Thu 08:10:34 PM 35.0667 -77.4800 196° South 343 395 40,000  Level Washington Center
Thu 08:11:34 PM 34.9722 -77.5108 195° South 343 395 40,000  Level Washington Center
Thu 08:12:34 PM 34.8800 -77.5442 197° South 343 395 40,000  Level Washington Center
Thu 08:13:34 PM 34.7917 -77.5772 197° South 343 395 40,000 -50 Level Washington Center
Thu 08:14:34 PM 34.6994 -77.6106 197° South 343 395 39,900 -50 Descending Washington Center
Thu 08:15:34 PM 34.6072 -77.6386 194° South 343 395 39,900  Level Washington Center
Thu 08:16:34 PM 34.5167 -77.6714 197° South 343 395 39,900  Level Washington Center
Thu 08:17:34 PM 34.4225 -77.7019 195° South 343 395 39,900  Level Washington Center
Thu 08:19:15 PM 34.2783 -77.7514 196° South 335 386 39,900 37 Level Jacksonville Center
Thu 08:20:16 PM 34.1733 -77.7853 195° South 346 398 40,000 50 Climbing Jacksonville Center
Thu 08:21:16 PM 34.0889 -77.8125 195° South 340 391 40,000  Level Jacksonville Center
Thu 08:22:16 PM 34.0003 -77.8403 195° South 340 391 40,000  Level Jacksonville Center
Thu 08:23:16 PM 33.9139 -77.8703 196° South 333 383 40,000  Level Jacksonville Center
Thu 08:24:16 PM 33.8192 -77.9033 196° South 339 390 40,000  Level Jacksonville Center
Thu 08:25:16 PM 33.7286 -77.9358 197° South 345 397 40,000  Level Jacksonville Center
Thu 08:26:16 PM 33.6317 -77.9661 195° South 345 397 40,000 -50 Level Jacksonville Center
Thu 08:27:16 PM 33.5392 -77.9989 196° South 356 410 39,900 -50 Descending Jacksonville Center
Thu 08:28:16 PM 33.4442 -78.0289 195° South 356 410 39,900  Level Jacksonville Center
Thu 08:29:16 PM 33.3494 -78.0589 195° South 356 410 39,900  Level Jacksonville Center
Thu 08:30:16 PM 33.2586 -78.0864 194° South 356 410 39,900  Level Jacksonville Center
Thu 08:31:16 PM 33.1639 -78.1186 196° South 356 410 39,900 50 Level Jacksonville Center
Thu 08:32:16 PM 33.0711 -78.1483 195° South 356 410 40,000 50 Climbing Jacksonville Center
Thu 08:33:16 PM 32.9764 -78.1806 196° South 356 410 40,000  Level Jacksonville Center
Thu 08:34:16 PM 32.8836 -78.2103 195° South 356 410 40,000  Level Jacksonville Center
Thu 08:35:16 PM 32.7906 -78.2372 194° South 356 410 40,000 -50 Level Jacksonville Center
Thu 08:36:16 PM 32.6981 -78.2717 197° South 356 410 39,900 -50 Descending Jacksonville Center
Thu 08:37:16 PM 32.6008 -78.3014 194° South 356 410 39,900  Level Jacksonville Center
Thu 08:38:16 PM 32.5058 -78.3283 193° South 356 410 39,900 50 Level Jacksonville Center
Thu 08:39:16 PM 32.4133 -78.3625 197° South 356 410 40,000 50 Climbing Jacksonville Center
Thu 08:40:16 PM 32.3289 -78.3961 199° South 356 410 40,000 -50 Level Jacksonville Center
Thu 08:41:16 PM 32.2317 -78.4256 194° South 356 410 39,900 -50 Descending Jacksonville Center
Thu 08:42:16 PM 32.1347 -78.4547 194° South 356 410 39,900  Level Jacksonville Center
Thu 08:43:16 PM 32.0378 -78.4864 195° South 361 415 39,900 50 Level Jacksonville Center
Thu 08:44:16 PM 31.9386 -78.5181 195° South 361 415 40,000  Climbing Jacksonville Center
Thu 08:45:16 PM 31.8436 -78.5494 196° South 361 415 39,900 -50 Descending Jacksonville Center
Thu 08:46:16 PM 31.7447 -78.5833 196° South 361 415 39,900 50 Level Jacksonville Center
Thu 08:47:16 PM 31.6517 -78.6097 194° South 355 409 40,000  Climbing Jacksonville Center
Thu 08:48:16 PM 31.5544 -78.6408 195° South 364 419 39,900 -50 Descending Jacksonville Center
Thu 08:49:16 PM 31.4594 -78.6719 196° South 359 413 39,900  Level Jacksonville Center
Thu 08:50:16 PM 31.3603 -78.7033 195° South 359 413 39,900 50 Level Jacksonville Center
Thu 08:51:16 PM 31.2653 -78.7342 196° South 359 413 40,000  Climbing Jacksonville Center
Thu 08:52:16 PM 31.1683 -78.7653 195° South 359 413 39,900  Descending Jacksonville Center
Thu 08:53:16 PM 31.0711 -78.7914 193° South 359 413 40,000 50 Climbing Jacksonville Center
Thu 08:54:16 PM 30.9700 -78.8297 198° South 364 419 40,000  Level Jacksonville Center
Thu 08:55:16 PM 30.8686 -78.8583 194° South 365 420 40,000 -35 Level Jacksonville Center
Thu 08:57:07 PM 30.6908 -78.9125 195° South 361 415 39,900 -35 Descending Miami Center
Thu 08:58:07 PM 30.5964 -78.9444 196° South 366 421 39,900  Level Miami Center
Thu 08:59:07 PM 30.4981 -78.9736 194° South 374 430 39,900 50 Level Miami Center
Thu 09:00:07 PM 30.3933 -79.0078 196° South 375 432 40,000  Climbing Miami Center
Thu 09:01:07 PM 30.2989 -79.0514 202° Southwest 375 432 39,900 -50 Descending Miami Center
Thu 09:02:07 PM 30.2106 -79.1022 206° Southwest 369 425 39,900  Level Miami Center
Thu 09:03:07 PM 30.1283 -79.1653 214° Southwest 362 417 39,900  Level Miami Center
Thu 09:04:07 PM 30.0419 -79.2233 210° Southwest 367 422 39,900 50 Level Miami Center
Thu 09:05:07 PM 29.9531 -79.2956 215° Southwest 362 417 40,000 50 Climbing Miami Center
Thu 09:06:07 PM 29.8792 -79.3419 209° Southwest 348 400 40,000 -50 Level Miami Center
Thu 09:07:07 PM 29.7906 -79.4044 211° Southwest 354 407 39,900  Descending Miami Center
Thu 09:08:07 PM 29.7017 -79.4764 215° Southwest 359 413 40,000 50 Climbing Miami Center
Thu 09:09:07 PM 29.6150 -79.5361 211° Southwest 365 420 40,000 -50 Level Miami Center
Thu 09:10:07 PM 29.5347 -79.5939 212° Southwest 360 414 39,900 -600 Descending Miami Center
Thu 09:11:07 PM 29.4461 -79.6511 209° Southwest 360 414 38,800 -1,050 Descending Miami Center
Thu 09:12:07 PM 29.3636 -79.7111 212° Southwest 360 414 37,800 -950 Descending Miami Center
Thu 09:13:07 PM 29.2769 -79.7706 211° Southwest 365 420 36,900 -950 Descending Miami Center
Thu 09:14:07 PM 29.1922 -79.8303 212° Southwest 365 420 35,900 -950 Descending Miami Center
Thu 09:15:07 PM 29.1053 -79.8897 211° Southwest 370 426 35,000 -950 Descending Miami Center
Thu 09:16:07 PM 29.0144 -79.9489 210° Southwest 370 426 34,000 -1,000 Descending Miami Center
Thu 09:17:07 PM 28.9253 -80.0128 212° Southwest 375 432 33,000 -950 Descending Miami Center
Thu 09:18:07 PM 28.8342 -80.0764 211° Southwest 382 440 32,100 -1,250 Descending Miami Center
Thu 09:19:07 PM 28.7389 -80.1375 209° Southwest 392 451 30,500 -2,000 Descending Miami Center
Thu 09:20:07 PM 28.6500 -80.1989 211° Southwest 392 451 28,100 -2,350 Descending Miami Center
Thu 09:21:07 PM 28.5650 -80.2578 211° Southwest 375 432 25,800 -2,200 Descending Miami Center
Thu 09:22:07 PM 28.4947 -80.3169 217° Southwest 365 420 23,700 -1,550 Descending Miami Center
Thu 09:23:07 PM 28.4506 -80.4172 243° Southwest 347 399 22,700 -1,050 Descending Miami Center
Thu 09:24:07 PM 28.3836 -80.5069 230° Southwest 353 406 21,600 -1,400 Descending Miami Center
Thu 09:25:07 PM 28.3008 -80.5681 213° Southwest 353 406 19,900 -1,750 Descending Miami Center
Thu 09:26:07 PM 28.2178 -80.6242 211° Southwest 353 406 18,100 -1,350 Descending Miami Center
Thu 09:27:07 PM 28.1456 -80.6783 213° Southwest 348 400 17,200 -550 Descending Miami Center
Thu 09:28:07 PM 28.0625 -80.7367 212° Southwest 353 406 17,000 -100 Descending Miami Center
Thu 09:29:07 PM 27.9731 -80.8017 213° Southwest 353 406 17,000 -150 Level Miami Center
Thu 09:30:07 PM 27.9008 -80.8533 212° Southwest 353 406 16,700 -1,750 Descending Miami Center
Thu 09:31:07 PM 27.8156 -80.9136 212° Southwest 353 406 13,500 -2,400 Descending Miami Center
Thu 09:32:07 PM 27.7411 -80.9672 213° Southwest 343 395 11,900 -750 Descending Miami Center
Thu 09:33:07 PM 27.6708 -81.0164 212° Southwest 333 383 12,000 50 Climbing Miami Center
Thu 09:34:07 PM 27.5961 -81.0675 211° Southwest 333 383 12,000  Level Miami Center
Thu 09:35:07 PM 27.5131 -81.1300 214° Southwest 333 383 12,000 -100 Level Miami Center
Thu 09:36:07 PM 27.4364 -81.1808 210° Southwest 328 377 11,800 -600 Descending Miami Center
Thu 09:37:07 PM 27.3617 -81.2342 212° Southwest 328 377 10,800 -900 Descending Miami Center
Thu 09:38:07 PM 27.2956 -81.2808 212° Southwest 323 372 10,000 -400 Descending Miami Center
Thu 09:39:07 PM 27.2122 -81.3406 213° Southwest 328 377 10,000 -50 Level Miami Center
Thu 09:40:07 PM 27.1419 -81.3892 212° Southwest 333 383 9,900 -50 Descending Miami Center
Thu 09:41:07 PM 27.0608 -81.4467 212° Southwest 333 383 9,900 50 Level Miami Center
Thu 09:42:07 PM 26.9747 -81.4619 189° South 320 368 10,000 50 Climbing Miami Center
Thu 09:43:07 PM 26.8861 -81.4214 158° South 326 375 10,000  Level Miami Center
Thu 09:44:07 PM 26.7844 -81.4011 170° South 341 392 10,000  Level Miami Center
Thu 09:45:07 PM 26.7094 -81.4631 216° Southwest 321 369 10,000  Level Miami Center
Thu 09:46:07 PM 26.6406 -81.5256 219° Southwest 327 376 10,000 -50 Level Miami Center
Thu 09:47:07 PM 26.5764 -81.5764 215° Southwest 321 369 9,900 -550 Descending Miami Center
Thu 09:48:07 PM 26.5183 -81.6275 218° Southwest 297 342 8,900 -1,250 Descending Miami Center
Thu 09:49:07 PM 26.4722 -81.6928 232° Southwest 277 319 7,400 -1,500 Descending Miami Center
Thu 09:50:07 PM 26.4350 -81.7517 235° Southwest 258 297 5,900 -1,500 Descending Miami Center
Thu 09:52:00 PM 26.5333 -81.7500 318° Northwest  Level FlightAware Approximate
Thu 09:59:00 PM 26.5362 -81.7552 318° Northwest  Level Estimated
Thu 10:00:00 PM 26.5333 -81.7500 318° Northwest  Level FlightAware Approximate
Thu 10:01:00 PM 26.5362 -81.7552 318° Northwest  Level Estimated
Thu 10:02:00 PM 26.5333 -81.7500 318° Northwest  Level FlightAware Approximate
Thu 10:03:00 PM 26.5362 -81.7552 318° Northwest  Level Estimated
Thu 10:04:00 PM 26.5333 -81.7500 318° Northwest  Level FlightAware Approximate
Thu 10:05:00 PM 26.5362 -81.7552 318° Northwest  Level Estimated

Login

Don't have an account? Register now (free) for customized features, flight alerts, and more!